createdAt,value
2022-12-28T00:01:59.159Z,1.6
2022-12-28T00:04:01.222Z,1.6
2022-12-28T00:06:00.786Z,1.6
2022-12-28T00:07:59.399Z,1.5
2022-12-28T00:09:56.439Z,1.4
2022-12-28T00:12:00.906Z,1.3
2022-12-28T00:13:59.433Z,1.4
2022-12-28T00:15:58.524Z,1.3
2022-12-28T00:18:00.412Z,1.2
2022-12-28T00:20:01.367Z,1.3
2022-12-28T00:22:01.095Z,1.1
2022-12-28T00:24:00.315Z,1.2
2022-12-28T00:25:57.685Z,1.3
2022-12-28T00:28:00.694Z,1.1
2022-12-28T00:29:57.743Z,1.2
2022-12-28T00:32:00.006Z,1.1
2022-12-28T00:33:58.740Z,0.9
2022-12-28T00:36:01.098Z,0.8
2022-12-28T00:37:58.977Z,1
2022-12-28T00:39:59.703Z,1.1
2022-12-28T00:41:58.099Z,0.9
2022-12-28T00:43:56.369Z,1
2022-12-28T00:46:00.732Z,1
2022-12-28T00:47:59.585Z,1
2022-12-28T00:50:00.498Z,1
2022-12-28T00:52:00.981Z,0.9
2022-12-28T00:53:58.612Z,0.9
2022-12-28T00:56:00.525Z,0.9
2022-12-28T00:58:00.342Z,0.8
2022-12-28T00:59:59.889Z,1
2022-12-28T01:01:59.307Z,1
2022-12-28T01:04:00.152Z,0.9
2022-12-28T01:05:57.824Z,0.8
2022-12-28T01:07:58.160Z,0.9
2022-12-28T01:09:59.063Z,0.9
2022-12-28T01:12:00.605Z,1
2022-12-28T01:13:59.052Z,0.9
2022-12-28T01:15:56.761Z,0.9
2022-12-28T01:18:00.454Z,0.8
2022-12-28T01:19:59.420Z,0.9
2022-12-28T01:23:58.603Z,1
2022-12-28T01:26:00.998Z,1
2022-12-28T01:27:59.562Z,1.1
2022-12-28T01:29:58.051Z,1.1
2022-12-28T01:31:57.853Z,1
2022-12-28T01:33:58.080Z,1
2022-12-28T01:35:58.217Z,1
2022-12-28T01:38:00.442Z,1
2022-12-28T01:40:00.838Z,1.1
2022-12-28T01:42:00.877Z,1.1
2022-12-28T01:43:59.023Z,1.2
2022-12-28T01:45:56.486Z,1.3
2022-12-28T01:47:58.387Z,1.3
2022-12-28T01:49:59.907Z,1.1
2022-12-28T01:52:00.529Z,1
2022-12-28T01:54:00.895Z,0.9
2022-12-28T01:56:00.336Z,0.8
2022-12-28T01:58:00.312Z,1
2022-12-28T01:59:59.515Z,1.1
2022-12-28T02:02:01.386Z,1.1
2022-12-28T02:03:56.356Z,1.1
2022-12-28T02:05:57.589Z,1.3
2022-12-28T02:08:00.539Z,1.2
2022-12-28T02:10:41.894Z,1.1
2022-12-28T02:11:59.031Z,1.1
2022-12-28T02:13:57.803Z,1.1
2022-12-28T02:16:00.357Z,1
2022-12-28T02:17:58.050Z,1.3
2022-12-28T02:19:59.588Z,1.3
2022-12-28T02:21:57.855Z,1.3
2022-12-28T02:23:59.940Z,1.3
2022-12-28T02:26:00.463Z,1.3
2022-12-28T02:28:00.363Z,1.3
2022-12-28T02:29:56.369Z,1.2
2022-12-28T02:31:57.698Z,1.2
2022-12-28T02:34:00.823Z,1.3
2022-12-28T02:35:56.340Z,1.3
2022-12-28T02:38:01.347Z,1.3
2022-12-28T02:40:00.528Z,1.2
2022-12-28T02:41:56.359Z,1.3
2022-12-28T02:43:58.109Z,1.4
2022-12-28T02:46:00.410Z,1.3
2022-12-28T02:48:00.478Z,1.4
2022-12-28T02:49:57.962Z,1.5
2022-12-28T02:52:00.840Z,1.4
2022-12-28T02:53:58.168Z,1.4
2022-12-28T02:55:57.746Z,1.4
2022-12-28T02:57:59.504Z,1.4
2022-12-28T02:59:56.408Z,1.4
2022-12-28T03:02:00.707Z,1.4
2022-12-28T03:03:56.341Z,1.4
2022-12-28T03:05:56.347Z,1.5
2022-12-28T03:07:59.786Z,1.6
2022-12-28T03:09:56.380Z,1.6
2022-12-28T03:12:00.499Z,1.5
2022-12-28T03:13:56.755Z,1.4
2022-12-28T03:15:59.860Z,1.5
2022-12-28T03:18:00.984Z,1.4
2022-12-28T03:19:58.441Z,1.5
2022-12-28T03:21:59.917Z,1.5
2022-12-28T03:25:57.830Z,1.6
2022-12-28T03:27:58.203Z,1.7
2022-12-28T03:29:56.742Z,1.7
2022-12-28T03:31:58.140Z,1.8
2022-12-28T03:33:57.734Z,1.8
2022-12-28T03:35:59.961Z,1.8
2022-12-28T03:37:59.445Z,1.7
2022-12-28T03:40:00.541Z,1.7
2022-12-28T03:41:59.100Z,1.7
2022-12-28T03:44:00.416Z,1.8
2022-12-28T03:45:58.091Z,1.7
2022-12-28T03:48:00.547Z,1.8
2022-12-28T03:50:00.545Z,1.8
2022-12-28T03:51:56.706Z,1.8
2022-12-28T03:53:58.137Z,1.8
2022-12-28T03:55:56.371Z,1.8
2022-12-28T03:58:00.899Z,1.8
2022-12-28T04:00:00.726Z,1.8
2022-12-28T04:01:59.179Z,1.8
2022-12-28T04:04:00.519Z,1.8
2022-12-28T04:05:58.943Z,1.8
2022-12-28T04:08:00.459Z,1.7
2022-12-28T04:09:57.802Z,1.7
2022-12-28T04:11:59.958Z,1.7
2022-12-28T04:14:02.159Z,1.6
2022-12-28T04:15:58.260Z,1.6
2022-12-28T04:18:00.495Z,1.6
2022-12-28T04:20:00.864Z,1.4
2022-12-28T04:21:57.898Z,1.4
2022-12-28T04:23:59.031Z,1.6
2022-12-28T04:27:59.737Z,1.5
2022-12-28T04:30:00.535Z,1.6
2022-12-28T04:31:59.082Z,1.5
2022-12-28T04:34:00.804Z,1.6
2022-12-28T04:35:57.779Z,1.5
2022-12-28T04:38:01.223Z,1.5
2022-12-28T04:39:58.612Z,1.5
2022-12-28T04:41:59.869Z,1.6
2022-12-28T04:43:58.203Z,1.7
2022-12-28T04:45:59.535Z,1.7
2022-12-28T04:47:56.690Z,1.7
2022-12-28T04:50:00.493Z,1.7
2022-12-28T04:52:01.480Z,1.7
2022-12-28T04:54:00.159Z,1.7
2022-12-28T04:56:00.477Z,1.7
2022-12-28T04:57:57.863Z,1.8
2022-12-28T05:00:00.599Z,1.8
2022-12-28T05:01:58.717Z,1.9
2022-12-28T05:04:00.452Z,1.9
2022-12-28T05:06:00.873Z,2
2022-12-28T05:08:00.901Z,2
2022-12-28T05:10:00.958Z,1.9
2022-12-28T05:11:58.766Z,2
2022-12-28T05:13:59.536Z,1.8
2022-12-28T05:15:59.506Z,1.8
2022-12-28T05:17:59.504Z,1.7
2022-12-28T05:22:00.510Z,1.8
2022-12-28T05:23:56.776Z,1.9
2022-12-28T05:25:59.080Z,1.9
2022-12-28T05:27:56.354Z,2
2022-12-28T05:30:00.419Z,1.9
2022-12-28T05:31:58.000Z,2
2022-12-28T05:33:59.935Z,1.9
2022-12-28T05:35:58.170Z,2
2022-12-28T05:37:58.133Z,2.1
2022-12-28T05:39:58.165Z,2.1
2022-12-28T05:41:58.326Z,2.1
2022-12-28T05:43:59.591Z,2.2
2022-12-28T05:45:56.363Z,2.2
2022-12-28T05:47:59.051Z,2.2
2022-12-28T05:49:59.057Z,2.2
2022-12-28T05:52:00.485Z,2.3
2022-12-28T05:53:56.729Z,2.2
2022-12-28T05:56:00.999Z,2.2
2022-12-28T05:57:58.081Z,2.2
2022-12-28T06:00:01.084Z,2.2
2022-12-28T06:02:00.759Z,2.2
2022-12-28T06:04:01.337Z,2.3
2022-12-28T06:05:59.408Z,2.3
2022-12-28T06:07:57.908Z,2.4
2022-12-28T06:10:00.490Z,2.5
2022-12-28T06:11:57.770Z,2.5
2022-12-28T06:13:58.126Z,2.5
2022-12-28T06:17:58.313Z,2.5
2022-12-28T06:20:00.081Z,2.6
2022-12-28T06:21:56.359Z,2.6
2022-12-28T06:23:59.740Z,2.6
2022-12-28T06:25:56.369Z,2.6
2022-12-28T06:28:00.534Z,2.6
2022-12-28T06:29:56.752Z,2.6
2022-12-28T06:32:00.010Z,2.6
2022-12-28T06:33:56.401Z,2.6
2022-12-28T06:35:56.770Z,2.5
2022-12-28T06:38:01.453Z,2.6
2022-12-28T06:40:00.512Z,2.5
2022-12-28T06:41:58.679Z,2.6
2022-12-28T06:44:00.492Z,2.6
2022-12-28T06:46:00.877Z,2.6
2022-12-28T06:47:56.421Z,2.6
2022-12-28T06:50:00.926Z,2.6
2022-12-28T06:52:00.889Z,2.6
2022-12-28T06:54:00.579Z,2.6
2022-12-28T06:55:59.519Z,2.6
2022-12-28T06:57:57.888Z,2.7
2022-12-28T07:00:00.668Z,2.7
2022-12-28T07:01:58.363Z,2.6
2022-12-28T07:03:59.157Z,2.7
2022-12-28T07:05:59.942Z,2.6
2022-12-28T07:08:00.952Z,2.6
2022-12-28T07:09:58.187Z,2.6
2022-12-28T07:11:56.845Z,2.6
2022-12-28T07:13:58.587Z,2.5
2022-12-28T07:15:59.027Z,2.5
2022-12-28T07:17:56.860Z,2.4
2022-12-28T07:19:59.130Z,2.4
2022-12-28T07:22:00.933Z,2.5
2022-12-28T07:23:59.685Z,2.6
2022-12-28T07:25:59.589Z,2.6
2022-12-28T07:28:01.367Z,2.6
2022-12-28T07:29:57.899Z,2.8
2022-12-28T07:31:59.993Z,2.9
2022-12-28T07:34:00.431Z,3
2022-12-28T07:35:59.148Z,3
2022-12-28T07:37:59.663Z,3
2022-12-28T07:40:01.110Z,3
2022-12-28T07:41:59.145Z,3
2022-12-28T07:44:00.106Z,3
2022-12-28T07:46:00.588Z,3
2022-12-28T07:48:00.019Z,3.1
2022-12-28T07:49:58.235Z,3.2
2022-12-28T07:52:01.437Z,3.2
2022-12-28T07:54:01.017Z,3.3
2022-12-28T07:56:00.088Z,3.3
2022-12-28T07:57:58.029Z,3.3
2022-12-28T07:59:59.220Z,3.4
2022-12-28T08:02:00.716Z,3.4
2022-12-28T08:04:01.167Z,3.4
2022-12-28T08:06:00.135Z,3.5
2022-12-28T08:08:03.475Z,3.5
2022-12-28T08:10:01.060Z,3.4
2022-12-28T08:12:00.303Z,3.6
2022-12-28T08:13:58.063Z,3.6
2022-12-28T08:15:59.799Z,3.6
2022-12-28T08:17:59.775Z,3.6
2022-12-28T08:20:00.849Z,3.7
2022-12-28T08:22:00.869Z,3.8
2022-12-28T08:24:00.975Z,3.9
2022-12-28T08:26:00.391Z,4
2022-12-28T08:27:58.340Z,4
2022-12-28T08:29:58.939Z,4
2022-12-28T08:32:00.515Z,4
2022-12-28T08:33:58.940Z,4
2022-12-28T08:35:59.901Z,4
2022-12-28T08:37:59.303Z,4.1
2022-12-28T08:40:00.384Z,4.1
2022-12-28T08:42:01.010Z,4.1
2022-12-28T08:43:57.116Z,4.3
2022-12-28T08:45:58.386Z,4.3
2022-12-28T08:48:02.109Z,4.4
2022-12-28T08:49:58.104Z,4.5
2022-12-28T08:52:04.939Z,4.4
2022-12-28T08:54:01.985Z,4.5
2022-12-28T08:56:06.166Z,4.6
2022-12-28T08:57:59.772Z,4.6
2022-12-28T09:00:00.607Z,4.6
2022-12-28T09:01:56.981Z,4.8
2022-12-28T09:04:01.660Z,4.8
2022-12-28T09:06:00.684Z,4.8
2022-12-28T09:07:59.666Z,4.7
2022-12-28T09:10:01.370Z,4.8
2022-12-28T09:11:56.896Z,4.9
2022-12-28T09:13:58.650Z,5
2022-12-28T09:16:01.449Z,5.1
2022-12-28T09:17:59.628Z,5.2
2022-12-28T09:19:59.284Z,5.4
2022-12-28T09:21:56.940Z,5.6
2022-12-28T09:24:01.485Z,6.4
2022-12-28T09:26:01.477Z,6.2
2022-12-28T09:27:59.815Z,6.1
2022-12-28T09:29:57.012Z,6.2
2022-12-28T09:31:58.850Z,6.3
2022-12-28T09:34:31.999Z,6.1
2022-12-28T09:36:02.593Z,6.3
2022-12-28T09:38:00.360Z,6.1
2022-12-28T09:40:01.859Z,6
2022-12-28T09:41:57.466Z,6.2
2022-12-28T09:44:01.695Z,5.9
2022-12-28T09:45:59.484Z,6
2022-12-28T09:48:01.886Z,5.8
2022-12-28T09:49:58.919Z,5.9
2022-12-28T09:51:58.775Z,5.9
2022-12-28T09:53:59.885Z,5.7
2022-12-28T09:56:01.323Z,5.8
2022-12-28T09:58:02.794Z,5.9
2022-12-28T10:00:02.005Z,6.1
2022-12-28T10:01:57.694Z,6.1
2022-12-28T10:03:58.681Z,6.1
2022-12-28T10:06:00.988Z,6.2
2022-12-28T10:08:01.894Z,6.4
2022-12-28T10:11:57.370Z,6.5
2022-12-28T10:14:02.026Z,6.8
2022-12-28T10:16:01.042Z,6.8
2022-12-28T10:18:00.782Z,6.8
2022-12-28T10:20:01.441Z,6.9
2022-12-28T10:21:59.189Z,6.9
2022-12-28T10:24:30.071Z,6.9
2022-12-28T10:26:02.779Z,6.9
2022-12-28T10:28:01.253Z,6.9
2022-12-28T10:30:01.737Z,6.9
2022-12-28T10:32:01.756Z,7
2022-12-28T10:33:58.884Z,7
2022-12-28T10:35:58.969Z,7
2022-12-28T10:38:01.743Z,7
2022-12-28T10:41:59.845Z,7.1
2022-12-28T10:44:29.597Z,7.2
2022-12-28T10:45:57.737Z,7.2
2022-12-28T10:47:59.589Z,7.2
2022-12-28T10:52:00.024Z,7.3
2022-12-28T10:54:01.038Z,7.3
2022-12-28T10:55:59.364Z,7.3
2022-12-28T10:58:28.912Z,7.3
2022-12-28T11:00:02.404Z,7.3
2022-12-28T11:02:00.929Z,7.4
2022-12-28T11:06:00.277Z,7.3
2022-12-28T11:08:03.483Z,7.4
2022-12-28T11:10:01.316Z,7.4
2022-12-28T11:12:01.745Z,7.3
2022-12-28T11:14:00.983Z,7.3
2022-12-28T11:16:00.830Z,7.4
2022-12-28T11:18:02.414Z,7.3
2022-12-28T11:19:59.904Z,7.4
2022-12-28T11:22:01.711Z,7.4
2022-12-28T11:23:59.940Z,7.4
2022-12-28T11:25:59.963Z,7.4
2022-12-28T11:28:01.606Z,7.4
2022-12-28T11:30:01.662Z,7.4
2022-12-28T11:32:01.221Z,7.4
2022-12-28T11:34:02.789Z,7.4
2022-12-28T11:36:05.641Z,7.4
2022-12-28T11:37:59.901Z,7.4
2022-12-28T11:40:01.128Z,7.4
2022-12-28T11:42:37.660Z,7.5
2022-12-28T11:44:02.539Z,7.5
2022-12-28T11:46:02.248Z,7.5
2022-12-28T11:48:01.302Z,7.4
2022-12-28T11:50:05.072Z,7.4
2022-12-28T11:52:36.924Z,7.5
2022-12-28T11:54:36.910Z,7.5
2022-12-28T11:56:37.723Z,7.5
2022-12-28T11:58:35.797Z,7.5
2022-12-28T12:00:39.561Z,7.5
2022-12-28T12:02:37.095Z,7.5
2022-12-28T12:04:36.154Z,7.6
2022-12-28T12:06:39.944Z,7.6
2022-12-28T12:08:38.796Z,7.5
2022-12-28T12:10:36.721Z,7.6
2022-12-28T12:12:37.493Z,7.6
2022-12-28T12:14:37.777Z,7.6
2022-12-28T12:16:37.200Z,7.6
2022-12-28T12:18:37.016Z,7.6
2022-12-28T12:20:44.197Z,7.6
2022-12-28T12:22:37.605Z,7.6
2022-12-28T12:24:37.651Z,7.7
2022-12-28T12:26:38.940Z,7.7
2022-12-28T12:28:39.067Z,7.7
2022-12-28T12:30:37.960Z,7.7
2022-12-28T12:32:38.429Z,7.7
2022-12-28T12:34:38.802Z,7.7
2022-12-28T12:36:38.383Z,7.8
2022-12-28T12:38:36.128Z,7.8
2022-12-28T12:40:39.089Z,7.8
2022-12-28T12:42:36.126Z,7.9
2022-12-28T12:44:38.774Z,7.9
2022-12-28T12:46:38.668Z,7.9
2022-12-28T12:48:38.911Z,7.9
2022-12-28T12:50:38.879Z,7.9
2022-12-28T12:52:42.181Z,7.9
2022-12-28T12:54:36.054Z,8
2022-12-28T12:56:40.880Z,8
2022-12-28T12:58:37.884Z,8
2022-12-28T13:00:39.161Z,8
2022-12-28T13:02:38.500Z,8
2022-12-28T13:04:38.368Z,8
2022-12-28T13:06:37.626Z,8
2022-12-28T13:08:38.268Z,8
2022-12-28T13:10:38.476Z,8
2022-12-28T13:12:35.818Z,8.1
2022-12-28T13:14:38.232Z,8.1
2022-12-28T13:16:38.252Z,8.1
2022-12-28T13:20:36.627Z,8.1
2022-12-28T13:22:38.416Z,8.1
2022-12-28T13:24:36.182Z,8.1
2022-12-28T13:26:36.101Z,8.1
2022-12-28T13:28:37.685Z,8.1
2022-12-28T13:30:37.347Z,8.1
2022-12-28T13:32:38.517Z,8
2022-12-28T13:34:36.458Z,8
2022-12-28T13:36:38.049Z,8
2022-12-28T13:38:37.596Z,8
2022-12-28T13:40:37.152Z,8
2022-12-28T13:42:37.457Z,8
2022-12-28T13:44:38.404Z,8
2022-12-28T13:46:36.170Z,8
2022-12-28T13:48:38.364Z,8
2022-12-28T13:50:38.943Z,8
2022-12-28T13:52:38.312Z,8
2022-12-28T13:54:36.117Z,8
2022-12-28T13:56:38.751Z,8
2022-12-28T13:58:35.845Z,8
2022-12-28T14:00:37.147Z,7.9
2022-12-28T14:02:37.256Z,7.9
2022-12-28T14:04:53.499Z,7.9
2022-12-28T14:06:37.092Z,8
2022-12-28T14:08:38.438Z,8
2022-12-28T14:10:36.181Z,8
2022-12-28T14:12:37.504Z,8
2022-12-28T14:14:37.659Z,7.9
2022-12-28T14:16:38.147Z,8
2022-12-28T14:18:37.076Z,8
2022-12-28T14:22:36.536Z,8
2022-12-28T14:24:38.783Z,8
2022-12-28T14:26:38.406Z,8
2022-12-28T14:28:38.907Z,8
2022-12-28T14:30:36.133Z,8
2022-12-28T14:32:42.777Z,8
2022-12-28T14:34:38.500Z,8
2022-12-28T14:36:36.122Z,8
2022-12-28T14:38:37.513Z,7.9
2022-12-28T14:40:39.880Z,7.9
2022-12-28T14:42:37.114Z,7.9
2022-12-28T14:44:37.993Z,7.9
2022-12-28T14:46:38.185Z,7.8
2022-12-28T14:48:36.683Z,7.8
2022-12-28T14:50:38.987Z,7.8
2022-12-28T14:52:37.946Z,7.8
2022-12-28T14:54:37.822Z,7.8
2022-12-28T14:56:36.229Z,7.7
2022-12-28T15:00:36.198Z,7.6
2022-12-28T15:02:41.047Z,7.6
2022-12-28T15:04:37.783Z,7.6
2022-12-28T15:06:38.932Z,7.5
2022-12-28T15:08:38.521Z,7.4
2022-12-28T15:10:37.089Z,7.3
2022-12-28T15:12:39.276Z,7.3
2022-12-28T15:14:39.332Z,7.2
2022-12-28T15:16:40.268Z,7.2
2022-12-28T15:18:39.157Z,7.1
2022-12-28T15:20:38.435Z,7.1
2022-12-28T15:22:37.529Z,7
2022-12-28T15:24:39.300Z,7
2022-12-28T15:26:36.532Z,7
2022-12-28T15:28:38.078Z,7
2022-12-28T15:30:38.903Z,7
2022-12-28T15:32:39.836Z,6.9
2022-12-28T15:34:37.058Z,6.9
2022-12-28T15:36:35.862Z,6.8
2022-12-28T15:38:37.376Z,6.7
2022-12-28T15:40:39.258Z,6.6
2022-12-28T15:42:40.495Z,6.6
2022-12-28T15:44:38.455Z,6.4
2022-12-28T15:46:38.436Z,6.3
2022-12-28T15:48:41.381Z,6.3
2022-12-28T15:50:36.250Z,6.1
2022-12-28T15:52:37.561Z,6.1
2022-12-28T15:54:41.314Z,6.2
2022-12-28T15:56:38.529Z,6.1
2022-12-28T15:58:38.557Z,6.1
2022-12-28T16:00:36.164Z,6.1
2022-12-28T16:02:39.897Z,5.9
2022-12-28T16:04:36.171Z,6
2022-12-28T16:06:43.772Z,5.9
2022-12-28T16:08:37.636Z,5.8
2022-12-28T16:10:37.295Z,5.6
2022-12-28T16:12:38.380Z,5.7
2022-12-28T16:14:40.773Z,5.8
2022-12-28T16:16:38.904Z,5.8
2022-12-28T16:18:37.096Z,5.7
2022-12-28T16:20:37.981Z,5.6
2022-12-28T16:22:37.595Z,5.6
2022-12-28T16:24:37.839Z,5.5
2022-12-28T16:26:39.279Z,5.5
2022-12-28T16:28:37.317Z,5.6
2022-12-28T16:30:39.309Z,5.5
2022-12-28T16:32:38.944Z,5.4
2022-12-28T16:34:38.450Z,5.4
2022-12-28T16:36:35.834Z,5.4
2022-12-28T16:38:37.497Z,5.5
2022-12-28T16:40:37.986Z,5.8
2022-12-28T16:42:38.018Z,5.7
2022-12-28T16:44:36.177Z,5.7
2022-12-28T16:46:37.596Z,5.7
2022-12-28T16:48:37.174Z,5.8
2022-12-28T16:50:38.761Z,5.8
2022-12-28T16:52:38.840Z,5.7
2022-12-28T16:54:36.132Z,5.7
2022-12-28T16:56:39.102Z,5.6
2022-12-28T16:58:37.711Z,5.8
2022-12-28T17:00:39.113Z,5.8
2022-12-28T17:02:40.697Z,5.6
2022-12-28T17:04:39.205Z,5.5
2022-12-28T17:06:37.226Z,5.7
2022-12-28T17:08:38.812Z,5.6
2022-12-28T17:11:14.653Z,5.5
2022-12-28T17:18:34.137Z,5.4
2022-12-28T17:22:39.214Z,5.3
2022-12-28T17:25:19.924Z,5.4
2022-12-28T17:27:19.013Z,5.5
2022-12-28T17:34:38.840Z,5.4
2022-12-28T17:36:36.504Z,5.2
2022-12-28T17:41:59.954Z,5.2
2022-12-28T17:44:39.610Z,5.2
2022-12-28T17:46:35.618Z,5.2
2022-12-28T17:48:41.026Z,5.2
2022-12-28T17:50:38.740Z,5.1
2022-12-28T17:52:39.130Z,5.4
2022-12-28T17:54:36.883Z,5.2
2022-12-28T17:56:37.846Z,5.2
2022-12-28T17:58:39.076Z,5.1
2022-12-28T18:00:38.590Z,5.2
2022-12-28T18:02:38.605Z,5.4
2022-12-28T18:04:38.516Z,5.4
2022-12-28T18:06:37.948Z,5.4
2022-12-28T18:08:37.482Z,5.4
2022-12-28T18:10:38.436Z,5.6
2022-12-28T18:14:35.578Z,5.7
2022-12-28T18:16:38.677Z,5.6
2022-12-28T18:18:39.456Z,5.7
2022-12-28T18:20:38.180Z,5.7
2022-12-28T18:22:37.215Z,5.5
2022-12-28T18:24:37.802Z,5.6
2022-12-28T18:26:37.843Z,5.6
2022-12-28T18:28:36.816Z,5.5
2022-12-28T18:30:38.230Z,5.6
2022-12-28T18:32:38.788Z,5.6
2022-12-28T18:34:38.341Z,5.5
2022-12-28T18:36:35.577Z,5.6
2022-12-28T18:38:37.873Z,5.7
2022-12-28T18:40:38.622Z,5.8
2022-12-28T18:42:38.593Z,5.7
2022-12-28T18:46:38.796Z,5.7
2022-12-28T18:48:36.352Z,5.7
2022-12-28T18:50:39.442Z,5.7
2022-12-28T18:52:37.838Z,5.8
2022-12-28T18:54:40.084Z,5.7
2022-12-28T18:56:38.217Z,5.8
2022-12-28T18:58:37.780Z,5.7
2022-12-28T19:00:36.874Z,5.8
2022-12-28T19:02:38.295Z,5.7
2022-12-28T19:04:35.747Z,5.7
2022-12-28T19:06:37.499Z,5.6
2022-12-28T19:08:36.288Z,5.5
2022-12-28T19:10:37.722Z,5.5
2022-12-28T19:12:39.107Z,5.5
2022-12-28T19:14:39.083Z,5.4
2022-12-28T19:16:35.913Z,5.5
2022-12-28T19:18:38.149Z,5.5
2022-12-28T19:20:38.207Z,5.5
2022-12-28T19:22:36.940Z,5.5
2022-12-28T19:24:40.101Z,5.3
2022-12-28T19:26:38.255Z,5.4
2022-12-28T19:28:38.910Z,5.3
2022-12-28T19:30:40.094Z,5.3
2022-12-28T19:32:39.116Z,5.4
2022-12-28T19:34:38.049Z,5.2
2022-12-28T19:36:38.208Z,5.1
2022-12-28T19:38:37.189Z,5.1
2022-12-28T19:40:35.578Z,5.1
2022-12-28T19:42:38.103Z,5
2022-12-28T19:44:38.593Z,5.1
2022-12-28T19:46:38.173Z,5
2022-12-28T19:48:39.179Z,5.2
2022-12-28T19:50:36.919Z,5.2
2022-12-28T19:52:35.891Z,5.3
2022-12-28T19:54:38.587Z,5.2
2022-12-28T19:56:35.603Z,5.2
2022-12-28T19:58:36.873Z,5.3
2022-12-28T20:00:37.672Z,5.3
2022-12-28T20:02:38.006Z,5.4
2022-12-28T20:04:39.124Z,5.3
2022-12-28T20:06:37.757Z,5.1
2022-12-28T20:08:35.582Z,5.2
2022-12-28T20:10:39.146Z,5.1
2022-12-28T20:12:38.142Z,5.3
2022-12-28T20:14:36.897Z,5.2
2022-12-28T20:16:36.771Z,5.4
2022-12-28T20:18:38.130Z,5.3
2022-12-28T20:21:09.207Z,5.4
2022-12-28T20:22:37.113Z,5.3
2022-12-28T20:24:39.175Z,5.3
2022-12-28T20:26:37.412Z,5.2
2022-12-28T20:28:38.281Z,5.1
2022-12-28T20:30:35.564Z,5.1
2022-12-28T20:32:42.839Z,4.9
2022-12-28T20:34:40.337Z,5.1
2022-12-28T20:36:37.354Z,5
2022-12-28T20:38:38.272Z,5
2022-12-28T20:40:38.196Z,4.8
2022-12-28T20:42:39.151Z,4.9
2022-12-28T20:44:38.329Z,4.7
2022-12-28T20:46:39.161Z,4.9
2022-12-28T20:48:36.938Z,4.9
2022-12-28T20:50:39.340Z,5
2022-12-28T20:52:37.817Z,5
2022-12-28T20:54:37.860Z,4.9
2022-12-28T20:56:37.264Z,5.1
2022-12-28T20:58:38.281Z,5
2022-12-28T21:00:36.987Z,5
2022-12-28T21:02:38.617Z,5
2022-12-28T21:04:38.333Z,4.9
2022-12-28T21:06:37.006Z,4.9
2022-12-28T21:08:38.611Z,4.7
2022-12-28T21:10:38.751Z,4.7
2022-12-28T21:12:35.591Z,4.7
2022-12-28T21:14:39.025Z,4.7
2022-12-28T21:16:39.146Z,4.6
2022-12-28T21:18:38.662Z,4.8
2022-12-28T21:20:39.028Z,4.7
2022-12-28T21:22:39.033Z,4.8
2022-12-28T21:24:39.249Z,4.8
2022-12-28T21:26:38.774Z,4.8
2022-12-28T21:28:36.954Z,4.7
2022-12-28T21:30:38.748Z,4.8
2022-12-28T21:32:37.344Z,4.9
2022-12-28T21:34:35.974Z,4.8
2022-12-28T21:36:37.979Z,4.7
2022-12-28T21:38:40.740Z,4.7
2022-12-28T21:40:36.738Z,4.6
2022-12-28T21:42:38.712Z,4.6
2022-12-28T21:44:37.645Z,4.6
2022-12-28T21:46:38.189Z,4.7
2022-12-28T21:48:40.490Z,4.6
2022-12-28T21:50:37.816Z,4.7
2022-12-28T21:52:37.789Z,4.7
2022-12-28T21:54:38.963Z,4.5
2022-12-28T21:56:38.234Z,4.3
2022-12-28T21:58:37.812Z,4.2
2022-12-28T22:00:34.867Z,4.4
2022-12-28T22:02:38.236Z,4.3
2022-12-28T22:04:38.110Z,4.2
2022-12-28T22:06:39.514Z,4.2
2022-12-28T22:08:37.747Z,4.3
2022-12-28T22:10:35.573Z,4.4
2022-12-28T22:12:37.870Z,4.4
2022-12-28T22:14:38.262Z,4.6
2022-12-28T22:19:00.686Z,4.7
2022-12-28T22:20:40.574Z,4.7
2022-12-28T22:22:39.464Z,4.7
2022-12-28T22:24:37.340Z,4.6
2022-12-28T22:26:37.252Z,4.9
2022-12-28T22:28:37.704Z,4.8
2022-12-28T22:30:35.941Z,5
2022-12-28T22:32:39.089Z,5.1
2022-12-28T22:34:37.418Z,5.2
2022-12-28T22:36:38.536Z,5.4
2022-12-28T22:38:38.712Z,5.5
2022-12-28T22:40:37.298Z,5.7
2022-12-28T22:42:38.708Z,5.7
2022-12-28T22:44:35.604Z,5.8
2022-12-28T22:46:38.824Z,5.8
2022-12-28T22:48:38.281Z,5.8
2022-12-28T22:50:41.436Z,5.8
2022-12-28T22:52:39.592Z,6
2022-12-28T22:54:39.094Z,6.1
2022-12-28T22:56:37.023Z,6
2022-12-28T22:58:34.165Z,6.1
2022-12-28T23:00:40.812Z,6.3
2022-12-28T23:02:40.731Z,6.1
2022-12-28T23:04:35.409Z,6.1
2022-12-28T23:06:35.434Z,6.3
2022-12-28T23:08:34.179Z,6.3
2022-12-28T23:10:34.157Z,6.4
2022-12-28T23:12:36.744Z,6.4
2022-12-28T23:16:34.954Z,6.3
2022-12-28T23:18:36.730Z,6.4
2022-12-28T23:20:34.185Z,6.4
2022-12-28T23:22:35.441Z,6.3
2022-12-28T23:24:37.353Z,6.3
2022-12-28T23:26:34.214Z,6.3
2022-12-28T23:28:37.335Z,6.1
2022-12-28T23:30:34.357Z,5.8
2022-12-28T23:32:37.442Z,5.5
2022-12-28T23:34:36.745Z,5.4
2022-12-28T23:36:34.624Z,5.4
2022-12-28T23:38:34.226Z,5.2
2022-12-28T23:40:34.872Z,5.3
2022-12-28T23:42:36.971Z,5.2
2022-12-28T23:44:34.144Z,5.3
2022-12-28T23:46:40.603Z,5.5
2022-12-28T23:48:37.390Z,5.4
2022-12-28T23:50:36.970Z,5.4
2022-12-28T23:52:37.003Z,5.4
2022-12-28T23:54:34.242Z,5.4
2022-12-28T23:56:34.135Z,5.4
2022-12-28T23:58:34.171Z,5.6
